createdAt,value
2019-03-09T00:04:22.222Z,97479.59
2019-03-09T00:07:11.023Z,97477.84
2019-03-09T00:09:59.844Z,97474.17
2019-03-09T00:12:48.641Z,97471.64
2019-03-09T00:15:37.465Z,97467.61
2019-03-09T00:18:07.199Z,97461.84
2019-03-09T00:20:36.663Z,97466.49
2019-03-09T00:23:44.503Z,97458.98
2019-03-09T00:26:52.351Z,97298.85
2019-03-09T00:30:00.295Z,97445.49
2019-03-09T00:32:49.245Z,97438.61
2019-03-09T00:35:38.047Z,97435.66
2019-03-09T00:38:27.111Z,97425.80
2019-03-09T00:41:15.579Z,97420.36
2019-03-09T00:44:04.644Z,97412.69
2019-03-09T00:46:34.099Z,97406.11
2019-03-09T00:49:22.916Z,97391.45
2019-03-09T00:52:11.715Z,97388.88
2019-03-09T00:54:53.551Z,97376.38
2019-03-09T00:57:42.642Z,97314.10
2019-03-09T01:00:31.441Z,97355.48
2019-03-09T01:03:20.516Z,97281.91
2019-03-09T01:06:09.326Z,97334.76
2019-03-09T01:08:58.133Z,97190.87
2019-03-09T01:11:47.001Z,97323.44
2019-03-09T01:14:16.488Z,97320.84
2019-03-09T01:17:05.306Z,97314.08
2019-03-09T01:19:54.119Z,97258.20
2019-03-09T01:22:42.986Z,97254.67
2019-03-09T01:25:31.805Z,97311.21
2019-03-09T01:28:20.595Z,97298.01
2019-03-09T01:31:09.415Z,97287.37
2019-03-09T01:33:58.208Z,97270.86
2019-03-09T01:36:47.025Z,97271.78
2019-03-09T01:39:35.827Z,97271.05
2019-03-09T01:42:24.640Z,97260.41
2019-03-09T01:44:54.095Z,97257.30
2019-03-09T01:47:42.912Z,97244.30
2019-03-09T01:50:31.708Z,97237.03
2019-03-09T01:53:20.511Z,96986.66
2019-03-09T01:56:09.308Z,97222.02
2019-03-09T01:58:58.114Z,96994.42
2019-03-09T02:01:27.581Z,97207.00
2019-03-09T02:04:16.415Z,97208.08
2019-03-09T02:07:05.273Z,97201.59
2019-03-09T02:09:34.820Z,97203.31
2019-03-09T02:12:23.613Z,97192.25
2019-03-09T02:15:14.935Z,97190.44
2019-03-09T02:18:03.798Z,97190.91
2019-03-09T02:20:52.685Z,97161.86
2019-03-09T02:23:41.487Z,97179.95
2019-03-09T02:26:30.306Z,97170.63
2019-03-09T02:29:19.102Z,97165.34
2019-03-09T02:32:07.917Z,97168.73
2019-03-09T02:34:56.711Z,97158.81
2019-03-09T02:37:45.536Z,97160.14
2019-03-09T02:40:34.335Z,97164.72
2019-03-09T02:43:23.223Z,97157.79
2019-03-09T02:46:12.069Z,97158.91
2019-03-09T02:49:00.917Z,97154.17
2019-03-09T02:51:49.744Z,97145.44
2019-03-09T02:54:38.634Z,97142.97
2019-03-09T02:57:19.992Z,97147.16
2019-03-09T03:03:25.501Z,97132.95
2019-03-09T03:06:14.308Z,97000.16
2019-03-09T03:12:02.341Z,97139.78
2019-03-09T03:14:51.123Z,96999.34
2019-03-09T03:17:39.949Z,97130.25
2019-03-09T03:20:28.736Z,97129.09
2019-03-09T03:23:17.561Z,97124.61
2019-03-09T03:26:06.344Z,97024.81
2019-03-09T03:28:55.164Z,97128.14
2019-03-09T03:31:43.977Z,97124.62
2019-03-09T03:34:32.764Z,97128.05
2019-03-09T03:37:14.783Z,97119.31
2019-03-09T03:40:05.241Z,97107.59
2019-03-09T03:42:54.032Z,97106.63
2019-03-09T03:45:43.156Z,97113.21
2019-03-09T03:48:31.956Z,97116.76
2019-03-09T03:51:20.757Z,97103.41
2019-03-09T03:54:09.550Z,97102.68
2019-03-09T03:56:51.657Z,97034.80
2019-03-09T03:59:40.445Z,97099.72
2019-03-09T04:02:29.246Z,97109.02
2019-03-09T04:05:18.048Z,97106.47
2019-03-09T04:08:07.127Z,97109.61
2019-03-09T04:10:55.996Z,97105.86
2019-03-09T04:13:44.809Z,97106.56
2019-03-09T04:16:33.947Z,96879.64
2019-03-09T04:19:22.771Z,97105.25
2019-03-09T04:22:11.581Z,96881.84
2019-03-09T04:25:19.438Z,97101.42
2019-03-09T04:28:08.421Z,97100.02
2019-03-09T04:34:05.108Z,96966.13
2019-03-09T04:36:46.404Z,96850.09
2019-03-09T04:39:35.223Z,97109.10
2019-03-09T04:42:24.031Z,97105.00
2019-03-09T04:45:13.484Z,96968.31
2019-03-09T04:48:02.286Z,97093.61
2019-03-09T04:50:51.110Z,97092.69
2019-03-09T04:53:39.895Z,97086.44
2019-03-09T04:56:21.901Z,96847.91
2019-03-09T04:59:10.696Z,97091.29
2019-03-09T05:01:59.514Z,97087.23
2019-03-09T05:04:48.394Z,97090.86
2019-03-09T05:11:12.049Z,97097.70
2019-03-09T05:14:00.867Z,97094.58
2019-03-09T05:16:49.657Z,97098.53
2019-03-09T05:19:38.477Z,97099.66
2019-03-09T05:22:27.269Z,97108.12
2019-03-09T05:25:16.078Z,96868.88
2019-03-09T05:28:04.966Z,97114.47
2019-03-09T05:30:53.757Z,97107.38
2019-03-09T05:33:42.577Z,97100.54
2019-03-09T05:36:31.393Z,97093.73
2019-03-09T05:39:20.208Z,97099.95
2019-03-09T05:42:08.997Z,97092.44
2019-03-09T05:44:57.816Z,97103.69
2019-03-09T05:47:46.603Z,97106.27
2019-03-09T05:50:35.422Z,97109.77
2019-03-09T05:53:24.208Z,97108.06
2019-03-09T05:56:13.020Z,97106.55
2019-03-09T05:58:54.685Z,97107.86
2019-03-09T06:01:43.500Z,96954.81
2019-03-09T06:04:32.308Z,97116.06
2019-03-09T06:07:21.116Z,97119.13
2019-03-09T06:10:09.905Z,97130.06
2019-03-09T06:12:58.794Z,97130.70
2019-03-09T06:15:47.583Z,96880.77
2019-03-09T06:18:36.465Z,96998.66
2019-03-09T06:21:25.264Z,96985.19
2019-03-09T06:24:14.081Z,97159.75
2019-03-09T06:27:02.870Z,97152.91
2019-03-09T06:29:51.686Z,97167.78
2019-03-09T06:33:01.381Z,97169.62
2019-03-09T06:36:11.127Z,97171.84
2019-03-09T06:39:20.835Z,97177.59
2019-03-09T06:42:48.336Z,97191.65
2019-03-09T06:45:37.162Z,97189.80
2019-03-09T06:48:25.962Z,97193.20
2019-03-09T06:51:14.780Z,97193.42
2019-03-09T06:54:03.570Z,97199.41
2019-03-09T06:56:52.385Z,97190.06
2019-03-09T06:59:33.906Z,97198.25
2019-03-09T07:02:22.717Z,97198.15
2019-03-09T07:05:11.547Z,97198.22
2019-03-09T07:08:00.337Z,97036.78
2019-03-09T07:10:49.158Z,97190.47
2019-03-09T07:13:37.945Z,97210.66
2019-03-09T07:16:26.759Z,97225.88
2019-03-09T07:19:15.561Z,97182.86
2019-03-09T07:22:04.633Z,97236.92
2019-03-09T07:24:53.445Z,97242.61
2019-03-09T07:27:42.245Z,97242.50
2019-03-09T07:30:31.122Z,97262.50
2019-03-09T07:33:19.937Z,97056.20
2019-03-09T07:36:08.747Z,97275.19
2019-03-09T07:38:57.546Z,97278.84
2019-03-09T07:41:46.361Z,97289.49
2019-03-09T07:44:35.162Z,97280.78
2019-03-09T07:47:23.977Z,97278.34
2019-03-09T07:50:33.702Z,97277.28
2019-03-09T07:53:22.497Z,97310.83
2019-03-09T07:56:11.295Z,97135.77
2019-03-09T07:58:52.749Z,97329.38
2019-03-09T08:01:41.541Z,97233.66
2019-03-09T08:04:30.366Z,97330.12
2019-03-09T08:07:19.156Z,97264.83
2019-03-09T08:10:28.881Z,97345.49
2019-03-09T08:13:17.696Z,97225.73
2019-03-09T08:16:06.497Z,97337.74
2019-03-09T08:18:55.311Z,97350.11
2019-03-09T08:21:44.104Z,97340.17
2019-03-09T08:24:32.921Z,97338.92
2019-03-09T08:27:21.737Z,97118.79
2019-03-09T08:30:31.457Z,97344.26
2019-03-09T08:33:20.305Z,97340.63
2019-03-09T08:36:09.138Z,97356.83
2019-03-09T08:38:50.857Z,97343.95
2019-03-09T08:41:39.624Z,97335.92
2019-03-09T08:44:28.451Z,97312.39
2019-03-09T08:47:17.236Z,97314.28
2019-03-09T08:50:25.381Z,97330.94
2019-03-09T08:53:14.195Z,97349.84
2019-03-09T08:56:03.005Z,97356.39
2019-03-09T08:58:44.211Z,97352.73
2019-03-09T09:01:33.043Z,97360.41
2019-03-09T09:04:21.835Z,97358.28
2019-03-09T09:07:10.648Z,97364.55
2019-03-09T09:09:59.444Z,97359.51
2019-03-09T09:12:48.261Z,97375.46
2019-03-09T09:15:37.062Z,97241.17
2019-03-09T09:18:25.882Z,97351.77
2019-03-09T09:21:14.678Z,97357.80
2019-03-09T09:24:03.492Z,97352.59
2019-03-09T09:26:52.303Z,97357.52
2019-03-09T09:29:41.452Z,97381.91
2019-03-09T09:32:30.273Z,97380.08
2019-03-09T09:38:47.544Z,97381.52
2019-03-09T09:41:28.860Z,97385.69
2019-03-09T09:44:17.747Z,97254.88
2019-03-09T09:47:06.537Z,97381.23
2019-03-09T09:49:55.360Z,97383.02
2019-03-09T09:52:44.263Z,97243.44
2019-03-09T09:55:33.122Z,97378.50
2019-03-09T09:58:21.920Z,97372.23
2019-03-09T10:01:10.731Z,97377.14
2019-03-09T10:03:59.532Z,97381.68
2019-03-09T10:06:48.351Z,97382.19
2019-03-09T10:09:37.167Z,97190.92
2019-03-09T10:12:25.971Z,97382.72
2019-03-09T10:15:35.745Z,97393.66
2019-03-09T10:18:24.595Z,97383.69
2019-03-09T10:21:13.424Z,97270.95
2019-03-09T10:24:02.233Z,97384.09
2019-03-09T10:26:51.035Z,97414.63
2019-03-09T10:29:39.853Z,97400.41
2019-03-09T10:32:28.739Z,97413.25
2019-03-09T10:35:17.660Z,97415.83
2019-03-09T10:38:06.455Z,97418.97
2019-03-09T10:40:48.267Z,97420.85
2019-03-09T10:43:37.067Z,97406.50
2019-03-09T10:46:25.891Z,97362.30
2019-03-09T10:49:14.697Z,97372.26
2019-03-09T10:52:03.510Z,97165.41
2019-03-09T10:57:53.270Z,97397.08
2019-03-09T11:01:02.979Z,97399.95
2019-03-09T11:03:51.800Z,97388.21
2019-03-09T11:06:40.604Z,97306.30
2019-03-09T11:09:29.427Z,97381.41
2019-03-09T11:12:18.224Z,97373.58
2019-03-09T11:15:27.947Z,97307.42
2019-03-09T11:18:16.743Z,97364.48
2019-03-09T11:21:05.646Z,97365.61
2019-03-09T11:24:13.539Z,97376.22
2019-03-09T11:27:02.357Z,97386.27
2019-03-09T11:30:10.252Z,97375.62
2019-03-09T11:32:59.084Z,97382.56
2019-03-09T11:35:47.894Z,97381.91
2019-03-09T11:38:36.711Z,97130.55
2019-03-09T11:41:25.504Z,97385.45
2019-03-09T11:44:33.350Z,97383.61
2019-03-09T11:47:22.153Z,97369.83
2019-03-09T11:50:31.877Z,97379.19
2019-03-09T11:53:20.671Z,97374.44
2019-03-09T11:56:09.617Z,97154.81
2019-03-09T11:59:17.489Z,97386.71
2019-03-09T12:05:21.285Z,97363.75
2019-03-09T12:08:10.083Z,97308.64
2019-03-09T12:10:58.915Z,97361.58
2019-03-09T12:14:06.835Z,97333.23
2019-03-09T12:16:55.637Z,97319.61
2019-03-09T12:19:44.458Z,97312.98
2019-03-09T12:22:33.271Z,97298.94
2019-03-09T12:25:22.076Z,97137.88
2019-03-09T12:31:05.175Z,97234.27
2019-03-09T12:33:53.992Z,97291.52
2019-03-09T12:36:42.884Z,97276.41
2019-03-09T12:39:31.688Z,97065.24
2019-03-09T12:42:20.516Z,97261.77
2019-03-09T12:45:30.272Z,97253.97
2019-03-09T12:51:13.054Z,97201.46
2019-03-09T12:54:01.884Z,97181.64
2019-03-09T12:56:50.688Z,97168.44
2019-03-09T12:59:39.513Z,97161.84
2019-03-09T13:02:21.037Z,97150.20
2019-03-09T13:05:10.004Z,97022.29
2019-03-09T13:07:58.849Z,97175.50
2019-03-09T13:10:47.647Z,97145.06
2019-03-09T13:13:36.473Z,97106.94
2019-03-09T13:16:25.270Z,97104.34
2019-03-09T13:19:14.092Z,97080.09
2019-03-09T13:22:02.888Z,97086.22
2019-03-09T13:24:51.717Z,97082.69
2019-03-09T13:27:40.545Z,97052.28
2019-03-09T13:30:48.366Z,97030.02
2019-03-09T13:33:37.177Z,96997.50
2019-03-09T13:36:26.005Z,96986.14
2019-03-09T13:39:14.817Z,96927.39
2019-03-09T13:42:03.635Z,96987.18
2019-03-09T13:48:00.196Z,97005.06
2019-03-09T13:50:49.006Z,96963.75
2019-03-09T13:53:37.834Z,96971.87
2019-03-09T13:56:26.656Z,96948.51
2019-03-09T13:59:15.456Z,96944.47
2019-03-09T14:01:56.779Z,96943.56
2019-03-09T14:04:45.582Z,96734.95
2019-03-09T14:07:34.399Z,96909.87
2019-03-09T14:10:23.212Z,96899.67
2019-03-09T14:13:12.023Z,96905.98
2019-03-09T14:16:00.827Z,96910.34
2019-03-09T14:18:49.684Z,96901.23
2019-03-09T14:21:38.521Z,96688.30
2019-03-09T14:24:27.337Z,96921.42
2019-03-09T14:27:16.391Z,96817.64
2019-03-09T14:30:26.134Z,96860.95
2019-03-09T14:33:14.933Z,96707.83
2019-03-09T14:36:03.761Z,96675.14
2019-03-09T14:38:52.559Z,96915.97
2019-03-09T14:41:41.374Z,96903.09
2019-03-09T14:44:30.184Z,96905.70
2019-03-09T14:47:18.997Z,96892.86
2019-03-09T14:50:28.726Z,96884.33
2019-03-09T14:53:17.522Z,96874.44
2019-03-09T14:56:06.346Z,96845.27
2019-03-09T14:58:55.147Z,96890.63
2019-03-09T15:01:36.690Z,96873.72
2019-03-09T15:04:25.520Z,96879.22
2019-03-09T15:07:14.314Z,96862.50
2019-03-09T15:10:22.234Z,96850.91
2019-03-09T15:13:30.055Z,96699.84
2019-03-09T15:16:18.879Z,96658.47
2019-03-09T15:19:07.691Z,96853.91
2019-03-09T15:21:56.513Z,96837.25
2019-03-09T15:24:45.316Z,96867.08
2019-03-09T15:27:34.453Z,96902.30
2019-03-09T15:30:24.656Z,96914.36
2019-03-09T15:33:13.472Z,96801.03
2019-03-09T15:36:02.278Z,96946.31
2019-03-09T15:38:51.110Z,96933.46
2019-03-09T15:41:39.903Z,96910.47
2019-03-09T15:44:28.726Z,96897.82
2019-03-09T15:47:17.523Z,96916.05
2019-03-09T15:50:27.251Z,96915.80
2019-03-09T15:53:16.105Z,96931.25
2019-03-09T15:56:05.044Z,96919.41
2019-03-09T15:58:53.954Z,96893.97
2019-03-09T16:01:35.695Z,96917.62
2019-03-09T16:04:24.492Z,96895.39
2019-03-09T16:07:13.301Z,96699.47
2019-03-09T16:10:02.105Z,96912.88
2019-03-09T16:12:50.991Z,96744.19
2019-03-09T16:15:39.798Z,96905.29
2019-03-09T16:18:28.610Z,96884.64
2019-03-09T16:21:17.408Z,96904.10
2019-03-09T16:24:25.627Z,96691.76
2019-03-09T16:27:14.425Z,96894.59
2019-03-09T16:30:03.313Z,96894.42
2019-03-09T16:32:52.198Z,96898.06
2019-03-09T16:35:40.993Z,96709.26
2019-03-09T16:38:48.833Z,96910.23
2019-03-09T16:41:37.625Z,96899.00
2019-03-09T16:44:19.057Z,96801.73
2019-03-09T16:47:07.846Z,96866.67
2019-03-09T16:49:56.664Z,96898.16
2019-03-09T16:52:45.467Z,96704.59
2019-03-09T16:55:34.283Z,96945.37
2019-03-09T16:58:23.074Z,96974.28
2019-03-09T17:01:11.893Z,97007.39
2019-03-09T17:04:00.694Z,97010.37
2019-03-09T17:06:49.511Z,97049.61
2019-03-09T17:09:38.304Z,97101.98
2019-03-09T17:12:27.168Z,97118.77
2019-03-09T17:15:36.826Z,97107.91
2019-03-09T17:18:25.652Z,97100.10
2019-03-09T17:21:14.447Z,97105.76
2019-03-09T17:24:03.594Z,97135.02
2019-03-09T17:26:52.386Z,97119.78
2019-03-09T17:29:41.200Z,97134.55
2019-03-09T17:32:29.995Z,97171.56
2019-03-09T17:35:18.829Z,97007.18
2019-03-09T17:38:07.606Z,97258.91
2019-03-09T17:40:56.425Z,97273.33
2019-03-09T17:43:37.760Z,97317.89
2019-03-09T17:46:26.576Z,97317.13
2019-03-09T17:49:15.380Z,97303.22
2019-03-09T17:52:04.188Z,97071.82
2019-03-09T18:00:55.268Z,97078.74
2019-03-09T18:03:44.060Z,97322.12
2019-03-09T18:06:33.172Z,97327.17
2019-03-09T18:09:21.971Z,97352.25
2019-03-09T18:12:10.785Z,97338.90
2019-03-09T18:14:59.599Z,97367.12
2019-03-09T18:17:48.423Z,97279.41
2019-03-09T18:20:37.211Z,97397.02
2019-03-09T18:26:19.909Z,97392.90
2019-03-09T18:29:08.722Z,97418.31
2019-03-09T18:31:57.513Z,97428.84
2019-03-09T18:34:46.328Z,97174.45
2019-03-09T18:37:35.117Z,97189.36
2019-03-09T18:40:23.936Z,97437.89
2019-03-09T18:43:12.752Z,97243.51
2019-03-09T18:45:54.280Z,97451.07
2019-03-09T18:48:43.094Z,97396.84
2019-03-09T18:51:31.912Z,97457.06
2019-03-09T18:54:20.713Z,97475.63
2019-03-09T18:57:09.539Z,97284.27
2019-03-09T18:59:58.331Z,97478.34
2019-03-09T19:02:47.218Z,97485.92
2019-03-09T19:05:36.022Z,97490.60
2019-03-09T19:08:24.834Z,97481.99
2019-03-09T19:11:13.635Z,97421.88
2019-03-09T19:14:02.449Z,97490.98
2019-03-09T19:16:51.336Z,97285.17
2019-03-09T19:19:40.209Z,97515.61
2019-03-09T19:22:29.034Z,97304.85
2019-03-09T19:28:32.939Z,97521.95
2019-03-09T19:31:21.740Z,97534.95
2019-03-09T19:34:10.555Z,97537.94
2019-03-09T19:36:59.731Z,97548.50
2019-03-09T19:39:48.625Z,97553.98
2019-03-09T19:42:37.466Z,97558.14
2019-03-09T19:45:22.242Z,97567.57
2019-03-09T19:48:11.061Z,97557.05
2019-03-09T19:50:59.852Z,97566.03
2019-03-09T19:53:48.668Z,97571.66
2019-03-09T19:56:37.474Z,97566.70
2019-03-09T19:59:26.300Z,97569.99
2019-03-09T20:02:15.088Z,97564.06
2019-03-09T20:08:18.625Z,97585.06
2019-03-09T20:11:07.445Z,97573.78
2019-03-09T20:17:03.995Z,97575.75
2019-03-09T20:19:52.792Z,97584.05
2019-03-09T20:22:41.607Z,97569.32
2019-03-09T20:25:49.479Z,97574.44
2019-03-09T20:28:38.274Z,97582.59
2019-03-09T20:31:27.095Z,97590.01
2019-03-09T20:34:15.924Z,97581.48
2019-03-09T20:37:04.742Z,97578.06
2019-03-09T20:39:53.633Z,97586.31
2019-03-09T20:42:42.492Z,97584.94
2019-03-09T20:45:23.971Z,97582.75
2019-03-09T20:48:12.771Z,97586.15
2019-03-09T20:51:01.597Z,97591.20
2019-03-09T20:53:50.404Z,97434.79
2019-03-09T20:59:33.446Z,97596.73
2019-03-09T21:02:22.264Z,97597.63
2019-03-09T21:05:11.134Z,97580.00
2019-03-09T21:07:59.966Z,97590.16
2019-03-09T21:10:48.751Z,97586.11
2019-03-09T21:13:37.567Z,97595.02
2019-03-09T21:16:26.376Z,97601.83
2019-03-09T21:19:15.257Z,97606.59
2019-03-09T21:22:04.057Z,97578.16
2019-03-09T21:24:33.535Z,97598.04
2019-03-09T21:33:28.314Z,97611.02
2019-03-09T21:36:17.120Z,97617.64
2019-03-09T21:39:06.213Z,97616.22
2019-03-09T21:41:54.989Z,97416.59
2019-03-09T21:44:43.807Z,97621.48
2019-03-09T21:47:25.401Z,97605.84
2019-03-09T21:50:34.301Z,97518.17
2019-03-09T21:53:23.050Z,97610.22
2019-03-09T21:56:11.866Z,97607.33
2019-03-09T21:59:00.658Z,97607.17
2019-03-09T22:01:49.473Z,97607.52
2019-03-09T22:07:46.039Z,97608.48
2019-03-09T22:10:53.857Z,97606.36
2019-03-09T22:13:42.679Z,97602.08
2019-03-09T22:16:31.740Z,97604.98
2019-03-09T22:19:20.574Z,97615.52
2019-03-09T22:22:09.364Z,97624.80
2019-03-09T22:31:07.101Z,97619.61
2019-03-09T22:36:49.909Z,97610.00
2019-03-09T22:39:38.760Z,97610.81
2019-03-09T22:42:27.598Z,97361.88
2019-03-09T22:45:35.699Z,97612.03
2019-03-09T22:48:17.273Z,97618.08
2019-03-09T22:51:06.092Z,97620.56
2019-03-09T22:54:13.911Z,97619.34
2019-03-09T22:57:02.732Z,97632.63
2019-03-09T22:59:51.533Z,97623.75
2019-03-09T23:05:34.772Z,97629.94
2019-03-09T23:08:23.632Z,97629.00
2019-03-09T23:11:12.451Z,97632.63
2019-03-09T23:14:01.301Z,97629.61
2019-03-09T23:17:09.103Z,97619.69
2019-03-09T23:19:57.939Z,97617.33
2019-03-09T23:22:46.717Z,97444.09
2019-03-09T23:25:35.512Z,97605.33
2019-03-09T23:28:24.328Z,97603.67
2019-03-09T23:31:13.134Z,97606.17
2019-03-09T23:34:01.945Z,97601.59
2019-03-09T23:36:50.742Z,97615.80
2019-03-09T23:39:39.628Z,97614.27
2019-03-09T23:42:28.445Z,97603.48
2019-03-09T23:45:38.160Z,97596.27
2019-03-09T23:48:26.959Z,97530.67
2019-03-09T23:51:15.781Z,97601.15
2019-03-09T23:54:04.584Z,97350.27
2019-03-09T23:56:53.404Z,97593.97
2019-03-09T23:59:42.272Z,97586.69
